sensor_id;sensor_type;location;lat;lon;timestamp;temperature;humidity
9699;DHT22;10089;47.876;8.346;2022-07-23T00:00:55;18.90;99.90
9699;DHT22;10089;47.876;8.346;2022-07-23T00:03:20;19.00;99.90
9699;DHT22;10089;47.876;8.346;2022-07-23T00:05:46;18.80;99.90
9699;DHT22;10089;47.876;8.346;2022-07-23T00:08:12;18.70;99.90
9699;DHT22;10089;47.876;8.346;2022-07-23T00:10:38;18.30;99.90
9699;DHT22;10089;47.876;8.346;2022-07-23T00:13:04;18.10;99.90
9699;DHT22;10089;47.876;8.346;2022-07-23T00:15:30;18.00;99.90
9699;DHT22;10089;47.876;8.346;2022-07-23T00:17:56;17.50;99.90
9699;DHT22;10089;47.876;8.346;2022-07-23T00:20:21;17.60;99.90
9699;DHT22;10089;47.876;8.346;2022-07-23T00:22:49;17.50;99.90
9699;DHT22;10089;47.876;8.346;2022-07-23T00:25:15;17.60;99.90
9699;DHT22;10089;47.876;8.346;2022-07-23T00:27:41;17.80;99.90
9699;DHT22;10089;47.876;8.346;2022-07-23T00:30:07;18.00;99.90
9699;DHT22;10089;47.876;8.346;2022-07-23T00:32:48;18.10;99.90
9699;DHT22;10089;47.876;8.346;2022-07-23T00:35:14;18.30;99.90
9699;DHT22;10089;47.876;8.346;2022-07-23T00:37:40;18.30;99.90
9699;DHT22;10089;47.876;8.346;2022-07-23T00:40:06;18.40;99.90
9699;DHT22;10089;47.876;8.346;2022-07-23T00:42:33;18.40;99.90
9699;DHT22;10089;47.876;8.346;2022-07-23T00:44:58;18.50;99.90
9699;DHT22;10089;47.876;8.346;2022-07-23T00:47:24;18.50;99.90
9699;DHT22;10089;47.876;8.346;2022-07-23T00:49:50;18.50;99.90
9699;DHT22;10089;47.876;8.346;2022-07-23T00:52:16;18.60;99.90
9699;DHT22;10089;47.876;8.346;2022-07-23T00:54:42;18.50;99.90
9699;DHT22;10089;47.876;8.346;2022-07-23T00:57:08;18.60;99.90
9699;DHT22;10089;47.876;8.346;2022-07-23T00:59:34;18.50;99.90
9699;DHT22;10089;47.876;8.346;2022-07-23T01:02:00;18.50;99.90
9699;DHT22;10089;47.876;8.346;2022-07-23T01:04:26;18.60;99.90
9699;DHT22;10089;47.876;8.346;2022-07-23T01:06:52;18.60;99.90
9699;DHT22;10089;47.876;8.346;2022-07-23T01:09:18;18.60;99.90
9699;DHT22;10089;47.876;8.346;2022-07-23T01:11:44;18.50;99.90
9699;DHT22;10089;47.876;8.346;2022-07-23T01:14:15;18.60;99.90
9699;DHT22;10089;47.876;8.346;2022-07-23T01:16:42;18.60;99.90
9699;DHT22;10089;47.876;8.346;2022-07-23T01:19:08;18.50;99.90
9699;DHT22;10089;47.876;8.346;2022-07-23T01:21:39;18.20;99.90
9699;DHT22;10089;47.876;8.346;2022-07-23T01:24:06;18.30;99.90
9699;DHT22;10089;47.876;8.346;2022-07-23T01:26:32;18.20;99.90
9699;DHT22;10089;47.876;8.346;2022-07-23T01:28:58;17.90;99.90
9699;DHT22;10089;47.876;8.346;2022-07-23T01:31:25;17.50;99.90
9699;DHT22;10089;47.876;8.346;2022-07-23T01:33:50;17.60;99.90
9699;DHT22;10089;47.876;8.346;2022-07-23T01:36:16;17.70;99.90
9699;DHT22;10089;47.876;8.346;2022-07-23T01:38:42;17.80;99.90
9699;DHT22;10089;47.876;8.346;2022-07-23T01:41:08;17.90;99.90
9699;DHT22;10089;47.876;8.346;2022-07-23T01:43:34;17.80;99.90
9699;DHT22;10089;47.876;8.346;2022-07-23T01:45:59;17.70;99.90
9699;DHT22;10089;47.876;8.346;2022-07-23T01:48:25;17.70;99.90
9699;DHT22;10089;47.876;8.346;2022-07-23T01:50:51;17.90;99.90
9699;DHT22;10089;47.876;8.346;2022-07-23T01:53:17;18.00;99.90
9699;DHT22;10089;47.876;8.346;2022-07-23T01:55:43;18.10;99.90
9699;DHT22;10089;47.876;8.346;2022-07-23T01:58:09;18.10;99.90
9699;DHT22;10089;47.876;8.346;2022-07-23T02:00:35;18.10;99.90
9699;DHT22;10089;47.876;8.346;2022-07-23T02:03:01;18.10;99.90
9699;DHT22;10089;47.876;8.346;2022-07-23T02:05:27;18.00;99.90
9699;DHT22;10089;47.876;8.346;2022-07-23T02:07:54;18.10;99.90
9699;DHT22;10089;47.876;8.346;2022-07-23T02:10:21;18.10;99.90
9699;DHT22;10089;47.876;8.346;2022-07-23T02:12:47;18.20;99.90
9699;DHT22;10089;47.876;8.346;2022-07-23T02:15:13;18.00;99.90
9699;DHT22;10089;47.876;8.346;2022-07-23T02:17:39;18.00;99.90
9699;DHT22;10089;47.876;8.346;2022-07-23T02:20:06;17.90;99.90
9699;DHT22;10089;47.876;8.346;2022-07-23T02:22:32;18.00;99.90
9699;DHT22;10089;47.876;8.346;2022-07-23T02:24:58;18.00;99.90
9699;DHT22;10089;47.876;8.346;2022-07-23T02:27:24;17.90;99.90
9699;DHT22;10089;47.876;8.346;2022-07-23T02:29:50;17.90;99.90
9699;DHT22;10089;47.876;8.346;2022-07-23T02:34:43;17.60;99.90
9699;DHT22;10089;47.876;8.346;2022-07-23T02:37:09;17.70;99.90
9699;DHT22;10089;47.876;8.346;2022-07-23T02:39:35;17.80;99.90
9699;DHT22;10089;47.876;8.346;2022-07-23T02:42:01;18.00;99.90
9699;DHT22;10089;47.876;8.346;2022-07-23T02:44:27;20.60;99.90
9699;DHT22;10089;47.876;8.346;2022-07-23T02:46:53;17.80;99.90
9699;DHT22;10089;47.876;8.346;2022-07-23T02:49:19;17.90;99.90
9699;DHT22;10089;47.876;8.346;2022-07-23T02:51:45;17.90;99.90
9699;DHT22;10089;47.876;8.346;2022-07-23T02:54:10;17.90;99.90
9699;DHT22;10089;47.876;8.346;2022-07-23T02:56:36;17.80;99.90
9699;DHT22;10089;47.876;8.346;2022-07-23T02:59:02;17.70;99.90
9699;DHT22;10089;47.876;8.346;2022-07-23T03:01:28;17.90;99.90
9699;DHT22;10089;47.876;8.346;2022-07-23T03:03:54;17.90;99.90
9699;DHT22;10089;47.876;8.346;2022-07-23T03:06:19;17.90;99.90
9699;DHT22;10089;47.876;8.346;2022-07-23T03:08:45;17.80;99.90
9699;DHT22;10089;47.876;8.346;2022-07-23T03:11:11;17.90;99.90
9699;DHT22;10089;47.876;8.346;2022-07-23T03:13:38;17.90;99.90
9699;DHT22;10089;47.876;8.346;2022-07-23T03:16:04;17.90;99.90
9699;DHT22;10089;47.876;8.346;2022-07-23T03:18:30;17.80;99.90
9699;DHT22;10089;47.876;8.346;2022-07-23T03:20:56;17.60;99.90
9699;DHT22;10089;47.876;8.346;2022-07-23T03:23:22;17.60;99.90
9699;DHT22;10089;47.876;8.346;2022-07-23T03:25:48;17.40;99.90
9699;DHT22;10089;47.876;8.346;2022-07-23T03:28:15;17.50;99.90
9699;DHT22;10089;47.876;8.346;2022-07-23T03:30:46;17.60;99.90
9699;DHT22;10089;47.876;8.346;2022-07-23T03:33:14;17.80;99.90
9699;DHT22;10089;47.876;8.346;2022-07-23T03:35:40;17.80;99.90
9699;DHT22;10089;47.876;8.346;2022-07-23T03:38:06;17.80;99.90
9699;DHT22;10089;47.876;8.346;2022-07-23T03:40:32;17.60;99.90
9699;DHT22;10089;47.876;8.346;2022-07-23T03:42:57;17.60;99.90
9699;DHT22;10089;47.876;8.346;2022-07-23T03:45:23;17.40;99.90
9699;DHT22;10089;47.876;8.346;2022-07-23T03:47:49;17.40;99.90
9699;DHT22;10089;47.876;8.346;2022-07-23T03:50:15;17.40;99.90
9699;DHT22;10089;47.876;8.346;2022-07-23T03:52:40;17.20;99.90
9699;DHT22;10089;47.876;8.346;2022-07-23T03:55:08;17.20;99.90
9699;DHT22;10089;47.876;8.346;2022-07-23T03:57:33;17.30;99.90
9699;DHT22;10089;47.876;8.346;2022-07-23T03:59:59;17.40;99.90
9699;DHT22;10089;47.876;8.346;2022-07-23T04:02:25;17.40;99.90
9699;DHT22;10089;47.876;8.346;2022-07-23T04:04:51;17.50;99.90
9699;DHT22;10089;47.876;8.346;2022-07-23T04:07:17;17.60;99.90
9699;DHT22;10089;47.876;8.346;2022-07-23T04:09:43;17.60;99.90
9699;DHT22;10089;47.876;8.346;2022-07-23T04:12:09;17.60;99.90
9699;DHT22;10089;47.876;8.346;2022-07-23T04:14:36;17.80;99.90
9699;DHT22;10089;47.876;8.346;2022-07-23T04:17:01;17.40;99.90
9699;DHT22;10089;47.876;8.346;2022-07-23T04:19:27;17.20;99.90
9699;DHT22;10089;47.876;8.346;2022-07-23T04:21:53;17.30;99.90
9699;DHT22;10089;47.876;8.346;2022-07-23T04:24:19;17.30;99.90
9699;DHT22;10089;47.876;8.346;2022-07-23T04:26:45;17.20;99.90
9699;DHT22;10089;47.876;8.346;2022-07-23T04:29:11;17.30;99.90
9699;DHT22;10089;47.876;8.346;2022-07-23T04:31:37;17.30;99.90
9699;DHT22;10089;47.876;8.346;2022-07-23T04:34:03;17.20;99.90
9699;DHT22;10089;47.876;8.346;2022-07-23T04:36:29;17.00;99.90
9699;DHT22;10089;47.876;8.346;2022-07-23T04:38:55;17.20;99.90
9699;DHT22;10089;47.876;8.346;2022-07-23T04:41:21;17.30;99.90
9699;DHT22;10089;47.876;8.346;2022-07-23T04:43:47;17.50;99.90
9699;DHT22;10089;47.876;8.346;2022-07-23T04:46:12;17.40;99.90
9699;DHT22;10089;47.876;8.346;2022-07-23T04:48:39;17.50;99.90
9699;DHT22;10089;47.876;8.346;2022-07-23T04:51:05;17.60;99.90
9699;DHT22;10089;47.876;8.346;2022-07-23T04:53:31;17.70;99.90
9699;DHT22;10089;47.876;8.346;2022-07-23T04:55:57;17.70;99.90
9699;DHT22;10089;47.876;8.346;2022-07-23T04:58:23;17.70;99.90
9699;DHT22;10089;47.876;8.346;2022-07-23T05:00:49;17.60;99.90
9699;DHT22;10089;47.876;8.346;2022-07-23T05:03:15;17.50;99.90
9699;DHT22;10089;47.876;8.346;2022-07-23T05:05:41;17.50;99.90
9699;DHT22;10089;47.876;8.346;2022-07-23T05:08:06;17.70;99.90
9699;DHT22;10089;47.876;8.346;2022-07-23T05:10:32;17.50;99.90
9699;DHT22;10089;47.876;8.346;2022-07-23T05:12:58;17.50;99.90
9699;DHT22;10089;47.876;8.346;2022-07-23T05:15:24;17.50;99.90
9699;DHT22;10089;47.876;8.346;2022-07-23T05:17:50;17.50;99.90
9699;DHT22;10089;47.876;8.346;2022-07-23T05:20:15;17.50;99.90
9699;DHT22;10089;47.876;8.346;2022-07-23T05:22:41;17.60;99.90
9699;DHT22;10089;47.876;8.346;2022-07-23T05:25:08;17.70;99.90
9699;DHT22;10089;47.876;8.346;2022-07-23T05:27:34;18.00;99.90
9699;DHT22;10089;47.876;8.346;2022-07-23T05:30:00;18.30;99.90
9699;DHT22;10089;47.876;8.346;2022-07-23T05:32:26;18.80;99.90
9699;DHT22;10089;47.876;8.346;2022-07-23T05:34:51;19.00;99.90
9699;DHT22;10089;47.876;8.346;2022-07-23T05:37:17;19.50;99.90
9699;DHT22;10089;47.876;8.346;2022-07-23T05:39:43;19.50;99.90
9699;DHT22;10089;47.876;8.346;2022-07-23T05:42:09;19.90;99.90
9699;DHT22;10089;47.876;8.346;2022-07-23T05:44:35;20.30;99.90
9699;DHT22;10089;47.876;8.346;2022-07-23T05:47:01;20.50;99.90
9699;DHT22;10089;47.876;8.346;2022-07-23T05:49:27;20.90;99.90
9699;DHT22;10089;47.876;8.346;2022-07-23T05:51:52;21.10;99.90
9699;DHT22;10089;47.876;8.346;2022-07-23T05:54:18;21.30;99.90
9699;DHT22;10089;47.876;8.346;2022-07-23T05:56:44;21.40;99.90
9699;DHT22;10089;47.876;8.346;2022-07-23T05:59:10;21.60;99.90
9699;DHT22;10089;47.876;8.346;2022-07-23T06:01:37;21.80;99.90
9699;DHT22;10089;47.876;8.346;2022-07-23T06:04:03;21.80;99.90
9699;DHT22;10089;47.876;8.346;2022-07-23T06:06:29;21.90;99.90
9699;DHT22;10089;47.876;8.346;2022-07-23T06:08:55;21.10;99.90
9699;DHT22;10089;47.876;8.346;2022-07-23T06:11:20;20.80;99.90
9699;DHT22;10089;47.876;8.346;2022-07-23T06:13:46;21.00;99.90
9699;DHT22;10089;47.876;8.346;2022-07-23T06:16:12;20.40;99.90
9699;DHT22;10089;47.876;8.346;2022-07-23T06:18:38;20.50;99.90
9699;DHT22;10089;47.876;8.346;2022-07-23T06:21:03;20.80;99.90
9699;DHT22;10089;47.876;8.346;2022-07-23T06:23:29;21.30;99.90
9699;DHT22;10089;47.876;8.346;2022-07-23T06:25:55;20.80;99.90
9699;DHT22;10089;47.876;8.346;2022-07-23T06:28:21;20.80;99.90
9699;DHT22;10089;47.876;8.346;2022-07-23T06:30:46;20.20;99.90
9699;DHT22;10089;47.876;8.346;2022-07-23T06:33:12;20.20;99.90
9699;DHT22;10089;47.876;8.346;2022-07-23T06:35:38;20.50;99.90
9699;DHT22;10089;47.876;8.346;2022-07-23T06:38:04;20.50;99.90
9699;DHT22;10089;47.876;8.346;2022-07-23T06:40:30;20.20;99.90
9699;DHT22;10089;47.876;8.346;2022-07-23T06:42:56;20.40;99.90
9699;DHT22;10089;47.876;8.346;2022-07-23T06:45:21;20.20;99.90
9699;DHT22;10089;47.876;8.346;2022-07-23T06:47:47;19.80;99.90
9699;DHT22;10089;47.876;8.346;2022-07-23T06:50:13;20.00;99.90
9699;DHT22;10089;47.876;8.346;2022-07-23T06:52:39;20.10;99.90
9699;DHT22;10089;47.876;8.346;2022-07-23T06:55:05;19.90;99.90
9699;DHT22;10089;47.876;8.346;2022-07-23T06:57:31;19.60;99.90
9699;DHT22;10089;47.876;8.346;2022-07-23T06:59:57;19.60;99.90
9699;DHT22;10089;47.876;8.346;2022-07-23T07:02:23;19.40;99.90
9699;DHT22;10089;47.876;8.346;2022-07-23T07:04:49;19.40;99.90
9699;DHT22;10089;47.876;8.346;2022-07-23T07:07:15;19.60;99.90
9699;DHT22;10089;47.876;8.346;2022-07-23T07:09:41;19.40;99.90
9699;DHT22;10089;47.876;8.346;2022-07-23T07:15:23;19.30;99.90
9699;DHT22;10089;47.876;8.346;2022-07-23T07:18:25;19.90;99.90
9699;DHT22;10089;47.876;8.346;2022-07-23T07:32:01;19.80;99.90
9699;DHT22;10089;47.876;8.346;2022-07-23T07:35:08;19.40;99.90
9699;DHT22;10089;47.876;8.346;2022-07-23T07:42:00;20.50;99.90
9699;DHT22;10089;47.876;8.346;2022-07-23T07:51:50;20.50;99.90
9699;DHT22;10089;47.876;8.346;2022-07-23T07:54:16;20.20;99.90
9699;DHT22;10089;47.876;8.346;2022-07-23T08:03:14;20.00;99.90
9699;DHT22;10089;47.876;8.346;2022-07-23T08:05:40;19.60;99.90
9699;DHT22;10089;47.876;8.346;2022-07-23T08:08:06;19.70;99.90
9699;DHT22;10089;47.876;8.346;2022-07-23T08:10:32;19.80;99.90
9699;DHT22;10089;47.876;8.346;2022-07-23T08:12:58;20.00;99.90
9699;DHT22;10089;47.876;8.346;2022-07-23T08:15:27;20.10;99.90
9699;DHT22;10089;47.876;8.346;2022-07-23T08:17:54;20.30;99.90
9699;DHT22;10089;47.876;8.346;2022-07-23T08:20:22;20.10;99.90
9699;DHT22;10089;47.876;8.346;2022-07-23T08:23:02;20.10;99.90
9699;DHT22;10089;47.876;8.346;2022-07-23T08:25:31;21.10;99.90
9699;DHT22;10089;47.876;8.346;2022-07-23T08:27:58;21.00;99.90
9699;DHT22;10089;47.876;8.346;2022-07-23T08:30:25;20.70;99.90
9699;DHT22;10089;47.876;8.346;2022-07-23T08:32:59;20.90;99.90
9699;DHT22;10089;47.876;8.346;2022-07-23T08:35:36;21.30;99.90
9699;DHT22;10089;47.876;8.346;2022-07-23T08:38:04;21.20;99.90
9699;DHT22;10089;47.876;8.346;2022-07-23T08:40:33;21.00;99.90
9699;DHT22;10089;47.876;8.346;2022-07-23T08:42:59;21.20;99.90
9699;DHT22;10089;47.876;8.346;2022-07-23T08:45:38;21.60;99.90
9699;DHT22;10089;47.876;8.346;2022-07-23T08:48:11;21.50;99.90
9699;DHT22;10089;47.876;8.346;2022-07-23T08:50:37;22.20;99.90
9699;DHT22;10089;47.876;8.346;2022-07-23T08:53:06;21.40;99.90
9699;DHT22;10089;47.876;8.346;2022-07-23T08:55:32;21.80;99.90
9699;DHT22;10089;47.876;8.346;2022-07-23T08:57:58;21.80;99.90
9699;DHT22;10089;47.876;8.346;2022-07-23T09:00:24;21.60;99.90
9699;DHT22;10089;47.876;8.346;2022-07-23T09:02:50;21.60;99.90
9699;DHT22;10089;47.876;8.346;2022-07-23T09:05:17;21.30;99.90
9699;DHT22;10089;47.876;8.346;2022-07-23T09:08:09;21.70;99.90
9699;DHT22;10089;47.876;8.346;2022-07-23T09:10:49;22.30;99.90
9699;DHT22;10089;47.876;8.346;2022-07-23T09:16:14;22.40;99.90
9699;DHT22;10089;47.876;8.346;2022-07-23T09:21:16;22.60;99.90
9699;DHT22;10089;47.876;8.346;2022-07-23T09:29:08;22.40;99.90
9699;DHT22;10089;47.876;8.346;2022-07-23T09:31:58;22.10;99.90
9699;DHT22;10089;47.876;8.346;2022-07-23T09:34:29;22.30;99.90
9699;DHT22;10089;47.876;8.346;2022-07-23T09:39:35;23.40;99.90
9699;DHT22;10089;47.876;8.346;2022-07-23T09:42:24;23.30;99.90
9699;DHT22;10089;47.876;8.346;2022-07-23T09:44:56;24.00;99.90
9699;DHT22;10089;47.876;8.346;2022-07-23T09:47:24;24.20;99.90
9699;DHT22;10089;47.876;8.346;2022-07-23T09:50:07;24.30;99.90
9699;DHT22;10089;47.876;8.346;2022-07-23T09:55:07;22.80;99.90
9699;DHT22;10089;47.876;8.346;2022-07-23T09:57:33;23.20;99.90
9699;DHT22;10089;47.876;8.346;2022-07-23T10:00:05;23.30;99.90
9699;DHT22;10089;47.876;8.346;2022-07-23T10:02:33;22.10;99.90
9699;DHT22;10089;47.876;8.346;2022-07-23T10:04:59;22.40;99.90
9699;DHT22;10089;47.876;8.346;2022-07-23T10:07:26;23.10;99.90
9699;DHT22;10089;47.876;8.346;2022-07-23T10:09:55;23.20;99.90
9699;DHT22;10089;47.876;8.346;2022-07-23T10:12:22;23.40;99.90
9699;DHT22;10089;47.876;8.346;2022-07-23T10:15:07;23.10;99.90
9699;DHT22;10089;47.876;8.346;2022-07-23T10:17:34;23.30;99.90
9699;DHT22;10089;47.876;8.346;2022-07-23T10:20:00;23.30;99.90
9699;DHT22;10089;47.876;8.346;2022-07-23T10:22:30;22.80;99.90
9699;DHT22;10089;47.876;8.346;2022-07-23T10:33:33;23.00;99.90
9699;DHT22;10089;47.876;8.346;2022-07-23T10:36:32;23.30;99.90
9699;DHT22;10089;47.876;8.346;2022-07-23T10:39:13;22.70;99.90
9699;DHT22;10089;47.876;8.346;2022-07-23T10:41:41;23.40;99.90
9699;DHT22;10089;47.876;8.346;2022-07-23T10:49:28;23.60;99.90
9699;DHT22;10089;47.876;8.346;2022-07-23T10:54:39;24.00;99.90
9699;DHT22;10089;47.876;8.346;2022-07-23T10:57:06;24.20;99.90
9699;DHT22;10089;47.876;8.346;2022-07-23T11:02:48;23.80;99.90
9699;DHT22;10089;47.876;8.346;2022-07-23T11:05:43;23.30;99.90
9699;DHT22;10089;47.876;8.346;2022-07-23T11:08:15;23.00;99.90
9699;DHT22;10089;47.876;8.346;2022-07-23T11:34:32;22.60;99.90
9699;DHT22;10089;47.876;8.346;2022-07-23T11:36:59;22.50;99.90
9699;DHT22;10089;47.876;8.346;2022-07-23T11:39:28;22.80;99.90
9699;DHT22;10089;47.876;8.346;2022-07-23T11:41:55;22.50;99.90
9699;DHT22;10089;47.876;8.346;2022-07-23T11:44:29;22.50;99.90
9699;DHT22;10089;47.876;8.346;2022-07-23T11:46:59;22.90;99.90
9699;DHT22;10089;47.876;8.346;2022-07-23T11:49:26;23.00;99.90
9699;DHT22;10089;47.876;8.346;2022-07-23T11:52:18;22.90;99.90
9699;DHT22;10089;47.876;8.346;2022-07-23T11:57:20;23.10;99.90
9699;DHT22;10089;47.876;8.346;2022-07-23T11:59:52;23.10;99.90
9699;DHT22;10089;47.876;8.346;2022-07-23T12:02:19;23.10;99.90
9699;DHT22;10089;47.876;8.346;2022-07-23T12:04:50;23.20;99.90
9699;DHT22;10089;47.876;8.346;2022-07-23T12:07:26;23.80;99.90
9699;DHT22;10089;47.876;8.346;2022-07-23T12:09:52;24.50;99.90
9699;DHT22;10089;47.876;8.346;2022-07-23T12:12:18;24.70;99.90
9699;DHT22;10089;47.876;8.346;2022-07-23T12:14:56;24.60;99.90
9699;DHT22;10089;47.876;8.346;2022-07-23T12:17:32;24.60;99.90
9699;DHT22;10089;47.876;8.346;2022-07-23T12:19:59;24.60;99.90
9699;DHT22;10089;47.876;8.346;2022-07-23T12:22:26;25.00;99.90
9699;DHT22;10089;47.876;8.346;2022-07-23T12:25:00;25.00;99.90
9699;DHT22;10089;47.876;8.346;2022-07-23T12:27:27;25.50;99.90
9699;DHT22;10089;47.876;8.346;2022-07-23T12:29:53;25.60;99.90
9699;DHT22;10089;47.876;8.346;2022-07-23T12:32:22;25.50;99.90
9699;DHT22;10089;47.876;8.346;2022-07-23T12:35:00;26.00;99.90
9699;DHT22;10089;47.876;8.346;2022-07-23T12:37:30;26.60;99.90
9699;DHT22;10089;47.876;8.346;2022-07-23T12:39:57;26.70;99.90
9699;DHT22;10089;47.876;8.346;2022-07-23T12:42:23;26.60;99.90
9699;DHT22;10089;47.876;8.346;2022-07-23T12:45:10;26.80;99.90
9699;DHT22;10089;47.876;8.346;2022-07-23T12:47:57;27.00;99.90
9699;DHT22;10089;47.876;8.346;2022-07-23T12:50:41;26.90;99.90
9699;DHT22;10089;47.876;8.346;2022-07-23T12:53:55;27.10;99.90
9699;DHT22;10089;47.876;8.346;2022-07-23T12:56:10;27.40;99.90
9699;DHT22;10089;47.876;8.346;2022-07-23T13:01:23;27.20;99.90
9699;DHT22;10089;47.876;8.346;2022-07-23T13:04:11;27.30;99.90
9699;DHT22;10089;47.876;8.346;2022-07-23T13:06:49;27.20;99.90
9699;DHT22;10089;47.876;8.346;2022-07-23T13:09:18;25.80;99.90
9699;DHT22;10089;47.876;8.346;2022-07-23T13:11:45;26.80;99.90
9699;DHT22;10089;47.876;8.346;2022-07-23T13:14:12;26.90;99.90
9699;DHT22;10089;47.876;8.346;2022-07-23T13:16:38;27.20;99.90
9699;DHT22;10089;47.876;8.346;2022-07-23T13:19:05;27.40;99.90
9699;DHT22;10089;47.876;8.346;2022-07-23T13:21:33;27.60;99.90
9699;DHT22;10089;47.876;8.346;2022-07-23T13:23:58;27.40;99.90
9699;DHT22;10089;47.876;8.346;2022-07-23T13:26:25;27.20;99.90
9699;DHT22;10089;47.876;8.346;2022-07-23T13:28:51;26.50;99.90
9699;DHT22;10089;47.876;8.346;2022-07-23T13:31:17;27.40;99.90
9699;DHT22;10089;47.876;8.346;2022-07-23T13:33:43;27.50;99.90
9699;DHT22;10089;47.876;8.346;2022-07-23T13:36:09;27.50;99.90
9699;DHT22;10089;47.876;8.346;2022-07-23T13:38:35;27.30;99.90
9699;DHT22;10089;47.876;8.346;2022-07-23T13:41:01;27.60;99.90
9699;DHT22;10089;47.876;8.346;2022-07-23T13:43:28;27.50;99.90
9699;DHT22;10089;47.876;8.346;2022-07-23T13:45:54;27.70;99.90
9699;DHT22;10089;47.876;8.346;2022-07-23T13:48:21;27.80;99.90
9699;DHT22;10089;47.876;8.346;2022-07-23T13:50:48;27.60;99.90
9699;DHT22;10089;47.876;8.346;2022-07-23T13:53:17;27.50;99.90
9699;DHT22;10089;47.876;8.346;2022-07-23T13:55:43;27.10;99.90
9699;DHT22;10089;47.876;8.346;2022-07-23T13:58:10;26.70;99.90
9699;DHT22;10089;47.876;8.346;2022-07-23T14:00:39;26.50;99.90
9699;DHT22;10089;47.876;8.346;2022-07-23T14:03:05;26.90;99.90
9699;DHT22;10089;47.876;8.346;2022-07-23T14:05:31;27.20;99.90
9699;DHT22;10089;47.876;8.346;2022-07-23T14:07:58;27.40;99.90
9699;DHT22;10089;47.876;8.346;2022-07-23T14:10:24;27.20;99.90
9699;DHT22;10089;47.876;8.346;2022-07-23T14:12:52;27.50;99.90
9699;DHT22;10089;47.876;8.346;2022-07-23T14:15:24;27.40;99.90
9699;DHT22;10089;47.876;8.346;2022-07-23T14:17:50;27.10;99.90
9699;DHT22;10089;47.876;8.346;2022-07-23T14:20:16;26.90;99.90
9699;DHT22;10089;47.876;8.346;2022-07-23T14:22:42;26.80;99.90
9699;DHT22;10089;47.876;8.346;2022-07-23T14:25:09;26.90;99.90
9699;DHT22;10089;47.876;8.346;2022-07-23T14:27:35;27.00;99.90
9699;DHT22;10089;47.876;8.346;2022-07-23T14:30:03;27.30;99.90
9699;DHT22;10089;47.876;8.346;2022-07-23T14:32:29;27.10;99.90
9699;DHT22;10089;47.876;8.346;2022-07-23T14:34:55;26.80;99.90
9699;DHT22;10089;47.876;8.346;2022-07-23T14:37:21;26.80;99.90
9699;DHT22;10089;47.876;8.346;2022-07-23T14:39:47;27.00;99.90
9699;DHT22;10089;47.876;8.346;2022-07-23T14:42:13;27.10;99.90
9699;DHT22;10089;47.876;8.346;2022-07-23T14:44:39;27.10;99.90
9699;DHT22;10089;47.876;8.346;2022-07-23T14:47:08;27.20;99.90
9699;DHT22;10089;47.876;8.346;2022-07-23T14:49:34;27.30;99.90
9699;DHT22;10089;47.876;8.346;2022-07-23T14:52:01;27.30;99.90
9699;DHT22;10089;47.876;8.346;2022-07-23T14:54:27;27.10;99.90
9699;DHT22;10089;47.876;8.346;2022-07-23T14:56:58;27.10;99.90
9699;DHT22;10089;47.876;8.346;2022-07-23T14:59:24;26.90;99.90
9699;DHT22;10089;47.876;8.346;2022-07-23T15:01:51;27.00;99.90
9699;DHT22;10089;47.876;8.346;2022-07-23T15:04:17;27.10;99.90
9699;DHT22;10089;47.876;8.346;2022-07-23T15:06:43;27.30;99.90
9699;DHT22;10089;47.876;8.346;2022-07-23T15:09:10;27.10;99.90
9699;DHT22;10089;47.876;8.346;2022-07-23T15:11:36;26.80;99.90
9699;DHT22;10089;47.876;8.346;2022-07-23T15:14:06;26.70;99.90
9699;DHT22;10089;47.876;8.346;2022-07-23T15:16:33;26.80;99.90
9699;DHT22;10089;47.876;8.346;2022-07-23T15:18:59;26.80;99.90
9699;DHT22;10089;47.876;8.346;2022-07-23T15:21:25;26.90;99.90
9699;DHT22;10089;47.876;8.346;2022-07-23T15:23:51;26.80;99.90
9699;DHT22;10089;47.876;8.346;2022-07-23T15:26:18;26.60;99.90
9699;DHT22;10089;47.876;8.346;2022-07-23T15:28:44;26.60;99.90
9699;DHT22;10089;47.876;8.346;2022-07-23T15:31:10;26.60;99.90
9699;DHT22;10089;47.876;8.346;2022-07-23T15:33:36;26.60;99.90
9699;DHT22;10089;47.876;8.346;2022-07-23T15:36:03;26.50;99.90
9699;DHT22;10089;47.876;8.346;2022-07-23T15:38:29;26.20;99.90
9699;DHT22;10089;47.876;8.346;2022-07-23T15:40:55;26.10;99.90
9699;DHT22;10089;47.876;8.346;2022-07-23T15:43:23;26.10;99.90
9699;DHT22;10089;47.876;8.346;2022-07-23T15:45:50;26.10;99.90
9699;DHT22;10089;47.876;8.346;2022-07-23T15:48:18;26.30;99.90
9699;DHT22;10089;47.876;8.346;2022-07-23T15:50:44;26.40;99.90
9699;DHT22;10089;47.876;8.346;2022-07-23T15:53:10;26.50;99.90
9699;DHT22;10089;47.876;8.346;2022-07-23T15:55:35;26.40;99.90
9699;DHT22;10089;47.876;8.346;2022-07-23T15:58:02;26.10;99.90
9699;DHT22;10089;47.876;8.346;2022-07-23T16:00:28;26.10;99.90
9699;DHT22;10089;47.876;8.346;2022-07-23T16:02:54;26.10;99.90
9699;DHT22;10089;47.876;8.346;2022-07-23T16:05:20;26.10;99.90
9699;DHT22;10089;47.876;8.346;2022-07-23T16:07:46;26.10;99.90
9699;DHT22;10089;47.876;8.346;2022-07-23T16:10:11;26.10;99.90
9699;DHT22;10089;47.876;8.346;2022-07-23T16:12:38;25.90;99.90
9699;DHT22;10089;47.876;8.346;2022-07-23T16:15:04;25.80;99.90
9699;DHT22;10089;47.876;8.346;2022-07-23T16:17:30;25.80;99.90
9699;DHT22;10089;47.876;8.346;2022-07-23T16:19:55;25.80;99.90
9699;DHT22;10089;47.876;8.346;2022-07-23T16:22:21;25.80;99.90
9699;DHT22;10089;47.876;8.346;2022-07-23T16:24:47;25.80;99.90
9699;DHT22;10089;47.876;8.346;2022-07-23T16:27:13;25.90;99.90
9699;DHT22;10089;47.876;8.346;2022-07-23T16:29:38;25.90;99.90
9699;DHT22;10089;47.876;8.346;2022-07-23T16:32:04;25.80;99.90
9699;DHT22;10089;47.876;8.346;2022-07-23T16:34:30;25.80;99.90
9699;DHT22;10089;47.876;8.346;2022-07-23T16:36:56;25.70;99.90
9699;DHT22;10089;47.876;8.346;2022-07-23T16:39:22;25.80;99.90
9699;DHT22;10089;47.876;8.346;2022-07-23T16:41:47;25.70;99.90
9699;DHT22;10089;47.876;8.346;2022-07-23T16:44:13;25.60;99.90
9699;DHT22;10089;47.876;8.346;2022-07-23T16:46:39;25.60;99.90
9699;DHT22;10089;47.876;8.346;2022-07-23T16:49:05;25.50;99.90
9699;DHT22;10089;47.876;8.346;2022-07-23T16:51:31;25.40;99.90
9699;DHT22;10089;47.876;8.346;2022-07-23T16:53:57;25.50;99.90
9699;DHT22;10089;47.876;8.346;2022-07-23T16:56:23;25.50;99.90
9699;DHT22;10089;47.876;8.346;2022-07-23T16:58:49;25.50;99.90
9699;DHT22;10089;47.876;8.346;2022-07-23T17:01:15;25.50;99.90
9699;DHT22;10089;47.876;8.346;2022-07-23T17:03:41;25.40;99.90
9699;DHT22;10089;47.876;8.346;2022-07-23T17:06:07;25.40;99.90
9699;DHT22;10089;47.876;8.346;2022-07-23T17:08:33;25.40;99.90
9699;DHT22;10089;47.876;8.346;2022-07-23T17:10:58;25.30;99.90
9699;DHT22;10089;47.876;8.346;2022-07-23T17:13:24;25.20;99.90
9699;DHT22;10089;47.876;8.346;2022-07-23T17:15:52;25.20;99.90
9699;DHT22;10089;47.876;8.346;2022-07-23T17:18:17;25.10;99.90
9699;DHT22;10089;47.876;8.346;2022-07-23T17:20:43;25.20;99.90
9699;DHT22;10089;47.876;8.346;2022-07-23T17:23:09;25.10;99.90
9699;DHT22;10089;47.876;8.346;2022-07-23T17:25:37;25.10;99.90
9699;DHT22;10089;47.876;8.346;2022-07-23T17:28:03;25.00;99.90